KDMO/DMO METAR and TAF weather

Enter ICAO airport designator
Station Type Date Time Source
KDMO METAR 2019/06/26 21:53 UTC NOAA

KDMO 262153Z AUTO 20014KT 10SM CLR 26/21 A3006 RMK AO2 SLP173 T02610206


Station Type Date Time Source
KDMO Decoded METAR 2019/06/26 21:53 UTC NOAA

SEDALIA MEMORIAL AIRPORT, MO, United States (KDMO) 38-43N 93-10W 274M
Jun 26, 2019 - 05:53 PM EDT / 2019.06.26 2153 UTC
Wind: from the SSW (200 degrees) at 16 MPH (14 KT):0
Visibility: 10 mile(s):0
Sky conditions: clear
Temperature: 79.0 F (26.1 C)
Dew Point: 69.1 F (20.6 C)
Relative Humidity: 71%
Pressure (altimeter): 30.06 in. Hg (1017 hPa)
ob: KDMO 262153Z AUTO 20014KT 10SM CLR 26/21 A3006 RMK AO2 SLP173 T02610206
cycle: 22

Station Type Date Time Source
KDMO TAF UTC NOAA

Error!

Example: see airport list